createdAt,value
2018-10-01T00:00:45.350Z,14.36
2018-10-01T00:01:46.142Z,14.33
2018-10-01T00:02:46.214Z,14.31
2018-10-01T00:03:46.927Z,14.33
2018-10-01T00:04:47.997Z,14.26
2018-10-01T00:05:48.622Z,14.26
2018-10-01T00:06:49.693Z,14.18
2018-10-01T00:07:51.044Z,14.19
2018-10-01T00:08:51.119Z,14.22
2018-10-01T00:09:51.471Z,14.28
2018-10-01T00:10:51.820Z,14.34
2018-10-01T00:11:52.616Z,14.31
2018-10-01T00:12:53.964Z,14.28
2018-10-01T00:13:54.491Z,14.25
2018-10-01T00:14:55.285Z,14.36
2018-10-01T00:15:55.350Z,14.25
2018-10-01T00:16:56.424Z,14.34
2018-10-01T00:17:57.214Z,14.37
2018-10-01T00:18:57.564Z,14.33
2018-10-01T00:19:58.642Z,14.33
2018-10-01T00:21:00.550Z,14.23
2018-10-01T00:22:01.625Z,14.23
2018-10-01T00:23:02.146Z,14.34
2018-10-01T00:24:02.833Z,14.31
2018-10-01T00:25:04.347Z,14.36
2018-10-01T00:26:06.034Z,14.33
2018-10-01T00:26:17.126Z,14.34
2018-10-01T00:27:18.092Z,14.34
2018-10-01T00:28:19.608Z,14.4
2018-10-01T00:29:20.398Z,14.33
2018-10-01T00:30:21.473Z,14.37
2018-10-01T00:31:22.269Z,14.36
2018-10-01T00:32:23.065Z,14.33
2018-10-01T00:33:24.409Z,14.44
2018-10-01T00:34:24.482Z,14.36
2018-10-01T00:35:26.272Z,14.43
2018-10-01T00:36:27.355Z,14.4
2018-10-01T00:37:28.458Z,14.41
2018-10-01T00:38:29.368Z,14.51
2018-10-01T00:39:30.079Z,14.49
2018-10-01T00:40:31.426Z,14.41
2018-10-01T00:41:31.944Z,14.51
2018-10-01T00:42:33.012Z,14.44
2018-10-01T00:43:34.083Z,14.48
2018-10-01T00:44:34.874Z,14.53
2018-10-01T00:45:35.940Z,14.51
2018-10-01T00:46:36.731Z,14.49
2018-10-01T00:47:37.833Z,14.51
2018-10-01T00:48:38.907Z,14.44
2018-10-01T00:49:39.698Z,14.43
2018-10-01T00:50:41.049Z,14.48
2018-10-01T00:51:41.842Z,14.49
2018-10-01T00:52:42.631Z,14.44
2018-10-01T00:53:43.705Z,14.52
2018-10-01T00:54:44.500Z,14.48
2018-10-01T00:55:45.015Z,14.37
2018-10-01T00:56:45.530Z,14.49
2018-10-01T00:57:46.684Z,14.58
2018-10-01T00:58:47.475Z,14.49
2018-10-01T00:59:49.379Z,14.44
2018-10-01T01:00:49.456Z,14.49
2018-10-01T01:01:50.533Z,14.52
2018-10-01T01:02:50.882Z,14.53
2018-10-01T01:03:52.234Z,14.61
2018-10-01T01:04:53.307Z,14.56
2018-10-01T01:05:54.213Z,14.53
2018-10-01T01:06:54.839Z,14.4
2018-10-01T01:07:55.803Z,14.56
2018-10-01T01:08:56.874Z,14.49
2018-10-01T01:09:57.959Z,14.43
2018-10-01T01:10:58.743Z,14.3
2018-10-01T01:11:59.259Z,14.34
2018-10-01T01:13:00.051Z,14.26
2018-10-01T01:14:00.619Z,14.28
2018-10-01T01:15:01.171Z,14.33
2018-10-01T01:16:02.522Z,14.3
2018-10-01T01:17:03.592Z,14.41
2018-10-01T01:18:05.118Z,14.26
2018-10-01T01:19:05.632Z,14.38
2018-10-01T01:20:07.267Z,14.38
2018-10-01T01:21:07.614Z,14.41
2018-10-01T01:22:08.129Z,14.36
2018-10-01T01:23:09.200Z,14.23
2018-10-01T01:24:09.717Z,14.23
2018-10-01T01:25:10.793Z,14.26
2018-10-01T01:26:12.029Z,14.2
2018-10-01T01:27:13.099Z,14.26
2018-10-01T01:28:14.899Z,14.19
2018-10-01T01:29:15.797Z,14.19
2018-10-01T01:30:16.593Z,14.22
2018-10-01T01:31:18.111Z,14.19
2018-10-01T01:32:18.904Z,14.23
2018-10-01T01:33:19.975Z,14.11
2018-10-01T01:34:20.767Z,14.15
2018-10-01T01:35:21.276Z,14.22
2018-10-01T01:36:22.346Z,14.16
2018-10-01T01:37:23.551Z,14.18
2018-10-01T01:38:24.074Z,14.18
2018-10-01T01:39:24.585Z,14.25
2018-10-01T01:40:25.376Z,14.33
2018-10-01T01:41:26.561Z,14.33
2018-10-01T01:42:27.083Z,14.31
2018-10-01T01:43:28.434Z,14.41
2018-10-01T01:44:28.501Z,14.3
2018-10-01T01:45:29.017Z,14.4
2018-10-01T01:46:30.646Z,14.36
2018-10-01T01:47:30.441Z,14.45
2018-10-01T01:48:30.983Z,14.41
2018-10-01T01:49:31.500Z,14.51
2018-10-01T01:50:32.016Z,14.53
2018-10-01T01:51:32.855Z,14.51
2018-10-01T01:52:33.763Z,14.66
2018-10-01T01:53:33.833Z,14.67
2018-10-01T01:54:34.632Z,14.7
2018-10-01T01:55:35.706Z,14.73
2018-10-01T01:56:36.776Z,14.67
2018-10-01T01:57:38.841Z,14.73
2018-10-01T01:58:39.641Z,14.73
2018-10-01T01:59:40.708Z,14.73
2018-10-01T02:00:42.074Z,14.85
2018-10-01T02:01:42.140Z,14.78
2018-10-01T02:02:43.212Z,14.77
2018-10-01T02:03:45.005Z,14.82
2018-10-01T02:04:45.803Z,14.93
2018-10-01T02:05:46.595Z,14.97
2018-10-01T02:06:48.219Z,14.96
2018-10-01T02:07:49.015Z,14.9
2018-10-01T02:08:49.708Z,14.93
2018-10-01T02:09:50.499Z,14.93
2018-10-01T02:10:51.289Z,15.04
2018-10-01T02:11:52.638Z,14.9
2018-10-01T02:12:53.158Z,14.96
2018-10-01T02:13:53.784Z,14.9
2018-10-01T02:14:54.301Z,14.99
2018-10-01T02:15:55.814Z,15.08
2018-10-01T02:16:56.606Z,15.05
2018-10-01T02:17:57.128Z,15.04
2018-10-01T02:18:58.235Z,14.96
2018-10-01T02:19:58.750Z,14.89
2018-10-01T02:20:59.541Z,14.92
2018-10-01T02:22:00.611Z,14.82
2018-10-01T02:23:01.682Z,14.94
2018-10-01T02:24:02.474Z,14.86
2018-10-01T02:25:03.821Z,14.87
2018-10-01T02:26:04.894Z,14.81
2018-10-01T02:27:04.965Z,14.92
2018-10-01T02:28:05.489Z,14.78
2018-10-01T02:29:06.016Z,14.77
2018-10-01T02:30:08.367Z,14.79
2018-10-01T02:31:09.292Z,14.77
2018-10-01T02:32:10.914Z,14.61
2018-10-01T02:33:11.101Z,14.61
2018-10-01T02:34:11.893Z,14.59
2018-10-01T02:35:12.963Z,14.66
2018-10-01T02:36:13.476Z,14.66
2018-10-01T02:37:15.385Z,14.59
2018-10-01T02:38:16.012Z,14.58
2018-10-01T02:39:16.542Z,14.51
2018-10-01T02:40:17.208Z,14.56
2018-10-01T02:41:17.878Z,14.61
2018-10-01T02:42:18.680Z,14.61
2018-10-01T02:43:20.300Z,14.66
2018-10-01T02:44:21.096Z,14.7
2018-10-01T02:45:22.020Z,14.66
2018-10-01T02:46:22.642Z,14.58
2018-10-01T02:47:23.712Z,14.62
2018-10-01T02:48:24.626Z,14.56
2018-10-01T02:49:25.707Z,14.55
2018-10-01T02:50:26.224Z,14.63
2018-10-01T02:51:27.297Z,14.52
2018-10-01T02:52:28.088Z,14.43
2018-10-01T02:53:29.164Z,14.36
2018-10-01T02:54:30.225Z,14.33
2018-10-01T02:55:31.295Z,14.26
2018-10-01T02:56:32.643Z,14.38
2018-10-01T02:57:34.272Z,14.34
2018-10-01T02:58:34.342Z,14.2
2018-10-01T02:59:35.171Z,14.15
2018-10-01T03:00:36.352Z,14.19
2018-10-01T03:01:36.427Z,14.13
2018-10-01T03:02:38.056Z,14.01
2018-10-01T03:03:38.848Z,14.08
2018-10-01T03:04:39.482Z,14.03
2018-10-01T03:05:40.388Z,14.07
2018-10-01T03:06:40.733Z,14.04
2018-10-01T03:07:41.805Z,14.07
2018-10-01T03:08:42.710Z,14.01
2018-10-01T03:09:43.260Z,14.12
2018-10-01T03:10:43.776Z,13.89
2018-10-01T03:11:44.851Z,14
2018-10-01T03:12:45.645Z,13.93
2018-10-01T03:13:45.991Z,13.83
2018-10-01T03:14:47.070Z,14.01
2018-10-01T03:15:48.755Z,13.94
2018-10-01T03:16:48.817Z,13.97
2018-10-01T03:17:49.799Z,14.01
2018-10-01T03:18:50.736Z,14.01
2018-10-01T03:19:51.670Z,14.11
2018-10-01T03:20:52.018Z,14.12
2018-10-01T03:21:52.649Z,14.19
2018-10-01T03:22:53.011Z,14.2
2018-10-01T03:23:53.650Z,14.23
2018-10-01T03:24:54.834Z,14.19
2018-10-01T03:25:55.459Z,14.23
2018-10-01T03:26:55.265Z,14.3
2018-10-01T03:27:56.625Z,14.18
2018-10-01T03:28:57.153Z,14.04
2018-10-01T03:29:58.398Z,14.05
2018-10-01T03:30:59.770Z,14.03
2018-10-01T03:32:00.987Z,14.12
2018-10-01T03:33:01.369Z,14.04
2018-10-01T03:34:02.165Z,14.04
2018-10-01T03:35:02.239Z,13.87
2018-10-01T03:36:02.590Z,13.93
2018-10-01T03:37:03.383Z,14.01
2018-10-01T03:38:04.737Z,13.91
2018-10-01T03:39:05.803Z,13.89
2018-10-01T03:40:06.789Z,13.82
2018-10-01T03:41:07.248Z,13.89
2018-10-01T03:42:08.320Z,13.8
2018-10-01T03:43:09.501Z,13.82
2018-10-01T03:44:11.135Z,13.67
2018-10-01T03:45:11.205Z,13.82
2018-10-01T03:46:12.006Z,13.79
2018-10-01T03:47:13.187Z,13.79
2018-10-01T03:48:14.256Z,13.85
2018-10-01T03:49:15.166Z,13.86
2018-10-01T03:50:15.810Z,13.89
2018-10-01T03:51:16.989Z,13.86
2018-10-01T03:52:17.059Z,13.86
2018-10-01T03:53:17.695Z,13.8
2018-10-01T03:54:18.760Z,13.98
2018-10-01T03:55:20.104Z,13.85
2018-10-01T03:56:21.012Z,13.82
2018-10-01T03:57:21.804Z,13.86
2018-10-01T03:58:23.163Z,13.83
2018-10-01T03:59:23.517Z,13.79
2018-10-01T04:00:24.787Z,13.75
2018-10-01T04:01:26.685Z,13.78
2018-10-01T04:02:26.766Z,13.73
2018-10-01T04:03:27.878Z,13.75
2018-10-01T04:04:27.944Z,13.7
2018-10-01T04:05:29.012Z,13.68
2018-10-01T04:06:30.360Z,13.65
2018-10-01T04:07:31.436Z,13.65
2018-10-01T04:08:33.074Z,13.68
2018-10-01T04:09:33.419Z,13.68
2018-10-01T04:10:34.689Z,13.71
2018-10-01T04:11:36.597Z,13.61
2018-10-01T04:12:36.675Z,13.64
2018-10-01T04:13:37.014Z,13.57
2018-10-01T04:14:38.365Z,13.58
2018-10-01T04:15:39.284Z,13.57
2018-10-01T04:16:39.916Z,13.58
2018-10-01T04:17:39.985Z,13.54
2018-10-01T04:18:40.337Z,13.57
2018-10-01T04:19:40.680Z,13.54
2018-10-01T04:20:42.039Z,13.52
2018-10-01T04:21:42.110Z,13.6
2018-10-01T04:22:43.004Z,13.61
2018-10-01T04:23:43.497Z,13.61
2018-10-01T04:24:43.566Z,13.61
2018-10-01T04:25:44.641Z,13.62
2018-10-01T04:26:45.432Z,13.71
2018-10-01T04:27:46.227Z,13.64
2018-10-01T04:28:47.296Z,13.64
2018-10-01T04:29:48.644Z,13.61
2018-10-01T04:30:48.761Z,13.61
2018-10-01T04:31:48.829Z,13.62
2018-10-01T04:32:50.178Z,13.6
2018-10-01T04:33:50.806Z,13.71
2018-10-01T04:34:52.154Z,13.7
2018-10-01T04:35:52.944Z,13.75
2018-10-01T04:36:54.013Z,13.73
2018-10-01T04:37:54.371Z,13.62
2018-10-01T04:38:55.449Z,13.7
2018-10-01T04:39:56.234Z,13.65
2018-10-01T04:40:57.360Z,13.57
2018-10-01T04:41:58.297Z,13.58
2018-10-01T04:42:59.090Z,13.75
2018-10-01T04:43:59.437Z,13.76
2018-10-01T04:45:00.230Z,13.79
2018-10-01T04:46:01.579Z,13.68
2018-10-01T04:47:02.209Z,13.67
2018-10-01T04:48:03.005Z,13.73
2018-10-01T04:49:03.810Z,13.78
2018-10-01T04:50:04.876Z,13.7
2018-10-01T04:51:05.419Z,13.8
2018-10-01T04:52:06.214Z,13.71
2018-10-01T04:53:06.730Z,13.78
2018-10-01T04:54:07.521Z,13.75
2018-10-01T04:55:08.315Z,13.8
2018-10-01T04:56:09.661Z,13.8
2018-10-01T04:57:10.450Z,13.78
2018-10-01T04:58:12.757Z,13.79
2018-10-01T04:59:12.468Z,13.78
2018-10-01T05:00:13.256Z,13.68
2018-10-01T05:01:14.225Z,13.68
2018-10-01T05:02:15.741Z,13.68
2018-10-01T05:03:15.811Z,13.7
2018-10-01T05:04:16.880Z,13.65
2018-10-01T05:05:18.672Z,13.64
2018-10-01T05:06:19.471Z,13.61
2018-10-01T05:07:20.262Z,13.61
2018-10-01T05:08:21.058Z,13.57
2018-10-01T05:09:21.590Z,13.49
2018-10-01T05:10:23.106Z,13.39
2018-10-01T05:11:24.066Z,13.33
2018-10-01T05:12:25.140Z,13.39
2018-10-01T05:13:25.761Z,13.55
2018-10-01T05:14:26.280Z,13.57
2018-10-01T05:15:27.072Z,13.55
2018-10-01T05:16:28.588Z,13.5
2018-10-01T05:17:29.658Z,13.43
2018-10-01T05:18:30.455Z,13.37
2018-10-01T05:19:30.524Z,13.45
2018-10-01T05:20:31.874Z,13.43
2018-10-01T05:21:32.398Z,13.39
2018-10-01T05:22:32.914Z,13.37
2018-10-01T05:23:34.537Z,13.39
2018-10-01T05:24:34.887Z,13.33
2018-10-01T05:25:35.952Z,13.43
2018-10-01T05:26:36.752Z,13.4
2018-10-01T05:27:37.266Z,13.42
2018-10-01T05:28:38.061Z,13.5
2018-10-01T05:29:39.410Z,13.4
2018-10-01T05:30:40.038Z,13.49
2018-10-01T05:31:40.835Z,13.49
2018-10-01T05:32:41.077Z,13.45
2018-10-01T05:33:42.428Z,13.5
2018-10-01T05:34:43.773Z,13.57
2018-10-01T05:35:43.564Z,13.54
2018-10-01T05:36:44.637Z,13.57
2018-10-01T05:37:46.316Z,13.64
2018-10-01T05:38:46.830Z,13.62
2018-10-01T05:39:47.900Z,13.73
2018-10-01T05:40:48.414Z,13.71
2018-10-01T05:41:49.659Z,13.73
2018-10-01T05:42:50.455Z,13.73
2018-10-01T05:43:51.528Z,13.75
2018-10-01T05:44:52.541Z,13.75
2018-10-01T05:45:53.348Z,13.7
2018-10-01T05:46:54.699Z,13.6
2018-10-01T05:47:55.493Z,13.71
2018-10-01T05:48:56.346Z,13.67
2018-10-01T05:49:57.923Z,13.73
2018-10-01T05:50:58.132Z,13.57
2018-10-01T05:51:59.437Z,13.65
2018-10-01T05:52:59.678Z,13.71
2018-10-01T05:54:01.351Z,13.67
2018-10-01T05:55:02.567Z,13.67
2018-10-01T05:56:02.366Z,13.64
2018-10-01T05:57:03.193Z,13.58
2018-10-01T05:58:04.190Z,13.6
2018-10-01T05:59:05.486Z,13.43
2018-10-01T06:00:06.286Z,13.46
2018-10-01T06:01:06.808Z,13.4
2018-10-01T06:02:07.125Z,13.28
2018-10-01T06:03:08.276Z,13.24
2018-10-01T06:04:09.348Z,13.27
2018-10-01T06:05:10.089Z,13.4
2018-10-01T06:06:10.983Z,13.37
2018-10-01T06:07:11.060Z,13.33
2018-10-01T06:08:12.452Z,13.31
2018-10-01T06:09:13.042Z,13.27
2018-10-01T06:10:13.336Z,13.27
2018-10-01T06:11:14.215Z,13.21
2018-10-01T06:12:15.712Z,13.17
2018-10-01T06:13:16.783Z,13.16
2018-10-01T06:14:17.834Z,13.21
2018-10-01T06:15:18.214Z,13.13
2018-10-01T06:16:18.798Z,13.12
2018-10-01T06:17:19.450Z,13.13
2018-10-01T06:18:19.823Z,13.08
2018-10-01T06:19:20.835Z,13.05
2018-10-01T06:20:21.374Z,12.98
2018-10-01T06:21:22.444Z,12.95
2018-10-01T06:22:23.824Z,12.9
2018-10-01T06:23:25.310Z,12.99
2018-10-01T06:24:25.233Z,12.93
2018-10-01T06:25:26.323Z,12.8
2018-10-01T06:26:25.993Z,12.8
2018-10-01T06:27:26.460Z,12.8
2018-10-01T06:28:27.822Z,12.78
2018-10-01T06:29:30.375Z,12.87
2018-10-01T06:30:29.566Z,12.86
2018-10-01T06:31:30.638Z,12.91
2018-10-01T06:32:31.161Z,12.99
2018-10-01T06:33:33.067Z,12.98
2018-10-01T06:34:32.866Z,12.91
2018-10-01T06:35:34.490Z,13.03
2018-10-01T06:36:35.564Z,12.9
2018-10-01T06:37:35.916Z,12.83
2018-10-01T06:38:36.712Z,12.84
2018-10-01T06:39:37.521Z,12.73
2018-10-01T06:40:37.626Z,12.93
2018-10-01T06:41:39.322Z,12.76
2018-10-01T06:42:40.233Z,12.81
2018-10-01T06:43:41.583Z,12.87
2018-10-01T06:44:41.658Z,12.93
2018-10-01T06:45:42.592Z,12.94
2018-10-01T06:46:43.228Z,12.83
2018-10-01T06:47:45.701Z,12.84
2018-10-01T06:48:46.545Z,12.93
2018-10-01T06:49:47.896Z,13.01
2018-10-01T06:50:49.010Z,12.95
2018-10-01T06:51:49.248Z,12.98
2018-10-01T06:52:50.791Z,12.88
2018-10-01T06:53:51.305Z,12.87
2018-10-01T06:54:51.824Z,12.8
2018-10-01T06:55:53.344Z,12.8
2018-10-01T06:56:54.568Z,12.83
2018-10-01T06:57:54.644Z,12.88
2018-10-01T06:58:55.444Z,12.87
2018-10-01T06:59:56.792Z,12.9
2018-10-01T07:00:57.178Z,13.01
2018-10-01T07:01:57.967Z,12.98
2018-10-01T07:02:58.938Z,13.01
2018-10-01T07:03:59.513Z,13.12
2018-10-01T07:05:01.314Z,13.19
2018-10-01T07:06:02.732Z,13.16
2018-10-01T07:07:03.142Z,13.19
2018-10-01T07:08:03.687Z,13.13
2018-10-01T07:09:04.922Z,13.2
2018-10-01T07:10:05.048Z,13.19
2018-10-01T07:11:06.291Z,13.28
2018-10-01T07:12:06.487Z,13.24
2018-10-01T07:13:07.746Z,13.21
2018-10-01T07:14:08.840Z,13.23
2018-10-01T07:15:09.189Z,13.27
2018-10-01T07:16:10.331Z,13.26
2018-10-01T07:17:11.859Z,13.4
2018-10-01T07:18:12.312Z,13.4
2018-10-01T07:19:12.877Z,13.55
2018-10-01T07:20:13.675Z,13.57
2018-10-01T07:21:15.300Z,13.64
2018-10-01T07:22:18.165Z,13.6
2018-10-01T07:23:18.047Z,13.6
2018-10-01T07:24:18.260Z,13.64
2018-10-01T07:25:18.333Z,13.55
2018-10-01T07:26:19.207Z,13.6
2018-10-01T07:27:19.442Z,13.61
2018-10-01T07:28:20.833Z,13.65
2018-10-01T07:29:21.633Z,13.57
2018-10-01T07:30:24.052Z,13.68
2018-10-01T07:31:23.571Z,13.64
2018-10-01T07:32:25.410Z,13.68
2018-10-01T07:33:26.074Z,13.62
2018-10-01T07:34:26.810Z,13.55
2018-10-01T07:35:27.330Z,13.62
2018-10-01T07:36:27.853Z,13.6
2018-10-01T07:37:28.951Z,13.58
2018-10-01T07:38:29.809Z,13.55
2018-10-01T07:39:30.325Z,13.57
2018-10-01T07:40:30.847Z,13.58
2018-10-01T07:41:31.688Z,13.5
2018-10-01T07:42:32.079Z,13.52
2018-10-01T07:43:33.515Z,13.54
2018-10-01T07:44:33.567Z,13.46
2018-10-01T07:45:35.367Z,13.5
2018-10-01T07:46:35.440Z,13.55
2018-10-01T07:47:36.318Z,13.62
2018-10-01T07:48:37.442Z,13.58
2018-10-01T07:49:38.539Z,13.57
2018-10-01T07:50:40.153Z,13.45
2018-10-01T07:51:41.023Z,13.46
2018-10-01T07:52:41.503Z,13.42
2018-10-01T07:53:42.382Z,13.37
2018-10-01T07:54:42.775Z,13.33
2018-10-01T07:55:43.569Z,13.3
2018-10-01T07:56:44.371Z,13.2
2018-10-01T07:57:46.001Z,13.19
2018-10-01T07:58:46.521Z,13.26
2018-10-01T07:59:49.193Z,13.27
2018-10-01T08:00:49.514Z,13.28
2018-10-01T08:01:50.753Z,13.31
2018-10-01T08:02:52.149Z,13.24
2018-10-01T08:03:51.838Z,13.37
2018-10-01T08:04:53.077Z,13.24
2018-10-01T08:05:53.681Z,13.26
2018-10-01T08:06:54.483Z,13.27
2018-10-01T08:07:55.990Z,13.42
2018-10-01T08:08:57.219Z,13.46
2018-10-01T08:09:57.843Z,13.5
2018-10-01T08:10:58.359Z,13.64
2018-10-01T08:11:59.972Z,13.71
2018-10-01T08:13:00.556Z,13.71
2018-10-01T08:14:01.634Z,13.82
2018-10-01T08:15:02.209Z,13.95
2018-10-01T08:16:03.017Z,14.01
2018-10-01T08:17:04.092Z,14.04
2018-10-01T08:18:04.609Z,14.03
2018-10-01T08:19:05.684Z,14.04
2018-10-01T08:20:07.435Z,14.04
2018-10-01T08:21:07.636Z,13.91
2018-10-01T08:22:08.495Z,13.86
2018-10-01T08:23:09.291Z,13.79
2018-10-01T08:24:10.262Z,13.85
2018-10-01T08:25:11.611Z,13.73
2018-10-01T08:26:12.464Z,13.78
2018-10-01T08:27:13.612Z,13.78
2018-10-01T08:28:13.968Z,13.75
2018-10-01T08:29:14.905Z,13.73
2018-10-01T08:30:14.716Z,13.76
2018-10-01T08:31:15.512Z,13.76
2018-10-01T08:32:16.051Z,13.7
2018-10-01T08:33:15.914Z,13.65
2018-10-01T08:34:17.163Z,13.68
2018-10-01T08:35:19.005Z,13.64
2018-10-01T08:36:19.182Z,13.68
2018-10-01T08:37:20.262Z,13.71
2018-10-01T08:38:22.243Z,13.73
2018-10-01T08:39:21.617Z,13.64
2018-10-01T08:40:23.052Z,13.68
2018-10-01T08:41:23.909Z,13.58
2018-10-01T08:42:24.336Z,13.62
2018-10-01T08:43:25.496Z,13.52
2018-10-01T08:44:26.384Z,13.54
2018-10-01T08:45:27.014Z,13.52
2018-10-01T08:46:27.814Z,13.58
2018-10-01T08:47:28.817Z,13.58
2018-10-01T08:48:29.884Z,13.55
2018-10-01T08:49:30.407Z,13.54
2018-10-01T08:50:32.359Z,13.45
2018-10-01T08:51:33.080Z,13.39
2018-10-01T08:52:33.501Z,13.4
2018-10-01T08:53:35.239Z,13.19
2018-10-01T08:54:35.664Z,13.28
2018-10-01T08:55:36.988Z,13.3
2018-10-01T08:56:39.986Z,13.37
2018-10-01T08:57:39.258Z,13.21
2018-10-01T08:58:39.613Z,13.19
2018-10-01T08:59:41.404Z,13.05
2018-10-01T09:00:41.212Z,12.99
2018-10-01T09:01:42.283Z,12.94
2018-10-01T09:02:43.356Z,12.9
2018-10-01T09:03:44.431Z,12.81
2018-10-01T09:04:45.537Z,12.65
2018-10-01T09:05:46.609Z,12.66
2018-10-01T09:06:48.457Z,12.62
2018-10-01T09:07:48.670Z,12.55
2018-10-01T09:08:49.186Z,12.51
2018-10-01T09:09:50.049Z,12.43
2018-10-01T09:10:50.397Z,12.2
2018-10-01T09:11:50.917Z,11.85
2018-10-01T09:12:51.714Z,11.73
2018-10-01T09:13:52.739Z,11.67
2018-10-01T09:14:53.716Z,11.55
2018-10-01T09:15:54.292Z,11.58
2018-10-01T09:16:55.888Z,11.55
2018-10-01T09:17:56.956Z,11.43
2018-10-01T09:18:58.032Z,11.58
2018-10-01T09:19:59.435Z,11.51
2018-10-01T09:21:00.215Z,11.4
2018-10-01T09:22:01.013Z,11.35
2018-10-01T09:23:02.642Z,11.27
2018-10-01T09:24:03.075Z,11.33
2018-10-01T09:25:03.625Z,11.22
2018-10-01T09:26:04.787Z,11.16
2018-10-01T09:27:06.217Z,11.15
2018-10-01T09:28:06.734Z,11.18
2018-10-01T09:29:07.540Z,11.2
2018-10-01T09:30:08.206Z,11.19
2018-10-01T09:31:10.937Z,11.12
2018-10-01T09:32:10.513Z,11.15
2018-10-01T09:33:10.801Z,11.18
2018-10-01T09:34:11.601Z,11.19
2018-10-01T09:35:13.331Z,11.18
2018-10-01T09:36:13.684Z,11.16
2018-10-01T09:37:14.477Z,11.16
2018-10-01T09:38:15.680Z,11.16
2018-10-01T09:39:16.309Z,11.07
2018-10-01T09:40:16.944Z,10.98
2018-10-01T09:41:17.714Z,10.95
2018-10-01T09:42:18.067Z,10.83
2018-10-01T09:43:18.865Z,10.71
2018-10-01T09:44:20.486Z,10.64
2018-10-01T09:45:20.986Z,10.55
2018-10-01T09:46:21.961Z,10.69
2018-10-01T09:47:22.720Z,10.58
2018-10-01T09:48:23.798Z,10.57
2018-10-01T09:49:24.873Z,10.65
2018-10-01T09:50:26.026Z,10.68
2018-10-01T09:51:26.303Z,10.69
2018-10-01T09:52:29.118Z,10.75
2018-10-01T09:53:28.694Z,10.69
2018-10-01T09:54:29.488Z,10.67
2018-10-01T09:55:30.567Z,10.65
2018-10-01T09:56:31.484Z,10.68
2018-10-01T09:57:31.389Z,10.68
2018-10-01T09:58:33.019Z,10.65
2018-10-01T09:59:33.001Z,10.69
2018-10-01T10:00:33.352Z,10.67
2018-10-01T10:01:33.591Z,10.61
2018-10-01T10:02:34.418Z,10.64
2018-10-01T10:03:35.412Z,10.65
2018-10-01T10:04:37.896Z,10.75
2018-10-01T10:05:36.891Z,10.71
2018-10-01T10:06:37.825Z,10.76
2018-10-01T10:07:38.622Z,10.87
2018-10-01T10:08:40.974Z,10.8
2018-10-01T10:09:40.022Z,10.76
2018-10-01T10:10:40.538Z,10.79
2018-10-01T10:11:41.775Z,10.89
2018-10-01T10:12:42.573Z,10.82
2018-10-01T10:13:43.368Z,10.83
2018-10-01T10:14:44.729Z,10.92
2018-10-01T10:15:45.112Z,10.92
2018-10-01T10:16:46.426Z,10.82
2018-10-01T10:17:46.458Z,10.69
2018-10-01T10:18:49.111Z,10.76
2018-10-01T10:19:49.633Z,10.76
2018-10-01T10:20:50.988Z,10.71
2018-10-01T10:21:50.789Z,10.62
2018-10-01T10:22:51.857Z,10.68
2018-10-01T10:23:52.928Z,10.69
2018-10-01T10:24:55.302Z,10.72
2018-10-01T10:25:55.139Z,10.77
2018-10-01T10:26:56.523Z,10.87
2018-10-01T10:27:57.428Z,10.9
2018-10-01T10:28:57.602Z,10.84
2018-10-01T10:29:58.677Z,10.89
2018-10-01T10:30:59.757Z,11.01
2018-10-01T10:32:00.904Z,11.02
2018-10-01T10:33:02.116Z,11.13
2018-10-01T10:34:03.228Z,11.13
2018-10-01T10:35:04.023Z,11.01
2018-10-01T10:36:04.257Z,11.18
2018-10-01T10:37:05.718Z,11.12
2018-10-01T10:38:06.328Z,11.15
2018-10-01T10:39:06.978Z,11.13
2018-10-01T10:40:07.659Z,10.94
2018-10-01T10:41:09.156Z,11.04
2018-10-01T10:42:09.611Z,11
2018-10-01T10:43:10.173Z,11.04
2018-10-01T10:44:12.240Z,11.07
2018-10-01T10:45:12.819Z,11.15
2018-10-01T10:46:13.510Z,11.1
2018-10-01T10:47:14.582Z,11.15
2018-10-01T10:48:15.618Z,11.19
2018-10-01T10:49:16.571Z,11.18
2018-10-01T10:50:18.438Z,11.19
2018-10-01T10:51:18.859Z,11.15
2018-10-01T10:52:19.365Z,11.1
2018-10-01T10:53:20.159Z,11.12
2018-10-01T10:54:20.548Z,11.07
2018-10-01T10:55:21.339Z,11.01
2018-10-01T10:56:06.154Z,11.07
2018-10-01T10:57:07.762Z,11.05
2018-10-01T10:58:07.525Z,11.05
2018-10-01T10:59:08.321Z,11.15
2018-10-01T11:00:09.393Z,11.16
2018-10-01T11:01:09.817Z,11.25
2018-10-01T11:02:11.074Z,11.2
2018-10-01T11:03:11.365Z,11.2
2018-10-01T11:04:12.724Z,11.26
2018-10-01T11:05:14.045Z,11.25
2018-10-01T11:06:15.888Z,11.34
2018-10-01T11:07:17.628Z,11.3
2018-10-01T11:08:18.106Z,11.3
2018-10-01T11:09:18.134Z,11.33
2018-10-01T11:10:18.930Z,11.33
2018-10-01T11:11:19.719Z,11.33
2018-10-01T11:12:20.561Z,11.31
2018-10-01T11:13:21.641Z,11.33
2018-10-01T11:14:23.933Z,11.33
2018-10-01T11:15:23.806Z,11.19
2018-10-01T11:16:23.748Z,11.15
2018-10-01T11:17:25.223Z,10.92
2018-10-01T11:18:26.138Z,10.83
2018-10-01T11:19:26.826Z,10.89
2018-10-01T11:20:29.518Z,10.9
2018-10-01T11:21:28.846Z,10.86
2018-10-01T11:22:29.315Z,10.75
2018-10-01T11:23:31.107Z,10.79
2018-10-01T11:24:31.139Z,10.61
2018-10-01T11:25:33.245Z,10.69
2018-10-01T11:26:33.918Z,10.71
2018-10-01T11:27:34.190Z,10.77
2018-10-01T11:28:35.327Z,10.79
2018-10-01T11:29:37.235Z,10.79
2018-10-01T11:30:38.107Z,10.79
2018-10-01T11:31:39.958Z,10.61
2018-10-01T11:32:40.332Z,10.62
2018-10-01T11:33:41.312Z,10.62
2018-10-01T11:34:42.296Z,10.58
2018-10-01T11:35:42.886Z,10.48
2018-10-01T11:36:43.402Z,10.42
2018-10-01T11:37:44.095Z,10.41
2018-10-01T11:38:45.168Z,10.55
2018-10-01T11:39:47.212Z,10.42
2018-10-01T11:40:50.821Z,10.48
2018-10-01T11:40:59.767Z,10.51
2018-10-01T11:42:01.643Z,10.48
2018-10-01T11:43:00.980Z,10.53
2018-10-01T11:44:01.777Z,10.55
2018-10-01T11:45:03.249Z,10.55
2018-10-01T11:46:04.182Z,10.59
2018-10-01T11:47:04.984Z,10.55
2018-10-01T11:48:06.221Z,10.67
2018-10-01T11:49:07.292Z,10.69
2018-10-01T11:50:07.928Z,10.75
2018-10-01T11:51:09.158Z,10.79
2018-10-01T11:52:10.497Z,10.77
2018-10-01T11:53:10.718Z,10.83
2018-10-01T11:54:10.983Z,10.89
2018-10-01T11:55:11.220Z,10.86
2018-10-01T11:56:11.742Z,10.89
2018-10-01T11:57:14.057Z,10.97
2018-10-01T11:58:14.655Z,10.92
2018-10-01T11:59:15.173Z,10.87
2018-10-01T12:00:18.762Z,10.89
2018-10-01T12:01:17.728Z,10.97
2018-10-01T12:02:17.801Z,11.08
2018-10-01T12:03:20.857Z,11.13
2018-10-01T12:04:20.065Z,11.16
2018-10-01T12:05:21.549Z,11.19
2018-10-01T12:06:22.659Z,11.34
2018-10-01T12:07:23.466Z,11.37
2018-10-01T12:08:24.012Z,11.34
2018-10-01T12:09:25.182Z,11.41
2018-10-01T12:10:26.458Z,11.4
2018-10-01T12:11:27.532Z,11.4
2018-10-01T12:12:28.526Z,11.43
2018-10-01T12:13:29.042Z,11.45
2018-10-01T12:14:29.652Z,11.45
2018-10-01T12:15:31.184Z,11.51
2018-10-01T12:16:31.452Z,11.59
2018-10-01T12:17:31.828Z,11.51
2018-10-01T12:18:32.630Z,11.56
2018-10-01T12:19:33.148Z,11.55
2018-10-01T12:20:33.981Z,11.52
2018-10-01T12:21:36.449Z,11.56
2018-10-01T12:22:36.581Z,11.51
2018-10-01T12:23:36.832Z,11.6
2018-10-01T12:24:39.065Z,11.58
2018-10-01T12:25:38.619Z,11.52
2018-10-01T12:26:39.692Z,11.53
2018-10-01T12:27:40.928Z,11.53
2018-10-01T12:28:42.022Z,11.58
2018-10-01T12:29:44.112Z,11.59
2018-10-01T12:30:44.404Z,11.55
2018-10-01T12:31:45.484Z,11.59
2018-10-01T12:32:46.793Z,11.68
2018-10-01T12:33:47.827Z,11.76
2018-10-01T12:34:50.398Z,11.8
2018-10-01T12:35:50.247Z,11.68
2018-10-01T12:36:51.068Z,11.71
2018-10-01T12:37:51.945Z,11.8
2018-10-01T12:38:54.173Z,11.76
2018-10-01T12:39:54.530Z,11.65
2018-10-01T12:40:56.050Z,11.68
2018-10-01T12:41:56.846Z,11.63
2018-10-01T12:43:00.052Z,11.48
2018-10-01T12:43:59.296Z,11.49
2018-10-01T12:45:00.217Z,11.34
2018-10-01T12:46:01.316Z,11.34
2018-10-01T12:47:02.588Z,11.3
2018-10-01T12:48:03.664Z,11.3
2018-10-01T12:49:03.749Z,11.34
2018-10-01T12:50:05.371Z,11.35
2018-10-01T12:51:05.773Z,11.38
2018-10-01T12:52:06.886Z,11.38
2018-10-01T12:53:08.599Z,11.41
2018-10-01T12:54:09.115Z,11.52
2018-10-01T12:55:09.911Z,11.55
2018-10-01T12:56:12.540Z,11.49
2018-10-01T12:57:14.778Z,11.58
2018-10-01T12:58:14.275Z,11.62
2018-10-01T12:59:14.393Z,11.56
2018-10-01T13:00:16.329Z,11.7
2018-10-01T13:01:16.713Z,11.6
2018-10-01T13:02:18.356Z,11.58
2018-10-01T13:03:18.545Z,11.58
2018-10-01T13:04:19.454Z,11.58
2018-10-01T13:05:20.399Z,11.59